Terminal Aerodrome Forecast
Issued by NWS

Home | Current Version | Previous Version | Text Only | Print | Product List | Glossary On
Versions: 1 2 3 4 5 6 7 8 9 10 11 12 13 14
000
FTUS44 KOHX 312300
TAFCKV
TAF
KCKV 312327Z 0100/0124 VRB03KT P6SM SCT070 BKN250
     FM011000 00000KT 2SM BR FEW003
     FM011200 VRB03KT P6SM SCT050=

USA.gov is the U.S. government's official web portal to all federal, state and local government web resources and services.